createdAt,value
2019-05-23T00:01:11.619Z,7.30
2019-05-23T00:03:50.557Z,7.37
2019-05-23T00:06:21.449Z,7.07
2019-05-23T00:08:52.539Z,6.53
2019-05-23T00:11:41.994Z,6.93
2019-05-23T00:14:23.258Z,6.37
2019-05-23T00:16:54.766Z,6.83
2019-05-23T00:19:26.716Z,6.77
2019-05-23T00:21:58.784Z,7.23
2019-05-23T00:24:30.692Z,6.80
2019-05-23T00:27:00.975Z,6.63
2019-05-23T00:29:31.372Z,7.13
2019-05-23T00:32:09.774Z,7.43
2019-05-23T00:34:42.259Z,6.90
2019-05-23T00:37:13.858Z,6.93
2019-05-23T00:39:44.454Z,7.40
2019-05-23T00:42:14.844Z,7.73
2019-05-23T00:44:45.601Z,7.33
2019-05-23T00:47:17.103Z,7.23
2019-05-23T00:49:48.254Z,7.87
2019-05-23T00:52:18.566Z,7.50
2019-05-23T00:54:50.118Z,7.33
2019-05-23T00:57:21.227Z,7.93
2019-05-23T00:59:51.825Z,7.77
2019-05-23T01:02:23.201Z,8.00
2019-05-23T01:04:53.764Z,8.07
2019-05-23T01:07:25.870Z,8.33
2019-05-23T01:09:58.029Z,6.90
2019-05-23T01:12:29.619Z,8.03
2019-05-23T01:15:00.048Z,7.97
2019-05-23T01:17:31.274Z,7.87
2019-05-23T01:20:03.469Z,7.63
2019-05-23T01:22:34.241Z,7.67
2019-05-23T01:25:05.465Z,8.40
2019-05-23T01:27:35.798Z,7.83
2019-05-23T01:30:08.684Z,7.97
2019-05-23T01:32:44.382Z,7.67
2019-05-23T01:35:19.290Z,7.83
2019-05-23T01:37:49.672Z,8.70
2019-05-23T01:40:20.838Z,8.47
2019-05-23T01:42:52.434Z,8.17
2019-05-23T01:45:23.837Z,8.63
2019-05-23T01:47:54.166Z,9.30
2019-05-23T01:50:26.111Z,8.40
2019-05-23T01:52:57.938Z,8.37
2019-05-23T01:55:28.333Z,8.23
2019-05-23T01:57:58.850Z,8.20
2019-05-23T02:00:31.437Z,7.60
2019-05-23T02:03:01.839Z,8.37
2019-05-23T02:05:33.234Z,8.07
2019-05-23T02:08:04.030Z,7.60
2019-05-23T02:10:34.375Z,7.80
2019-05-23T02:13:04.806Z,8.73
2019-05-23T02:15:35.388Z,8.07
2019-05-23T02:18:06.374Z,8.20
2019-05-23T02:20:37.185Z,8.03
2019-05-23T02:23:07.959Z,8.40
2019-05-23T02:25:38.648Z,9.30
2019-05-23T02:28:10.470Z,9.33
2019-05-23T02:30:41.191Z,10.20
2019-05-23T02:33:12.410Z,9.70
2019-05-23T02:35:43.227Z,9.43
2019-05-23T02:38:48.107Z,9.13
2019-05-23T02:41:31.622Z,9.30
2019-05-23T02:44:09.011Z,9.53
2019-05-23T02:46:59.453Z,9.40
2019-05-23T02:49:33.743Z,8.70
2019-05-23T02:52:23.845Z,9.17
2019-05-23T02:54:54.835Z,9.67
2019-05-23T02:57:28.376Z,9.03
2019-05-23T03:00:06.999Z,9.40
2019-05-23T03:03:02.428Z,9.10
2019-05-23T03:05:34.804Z,9.50
2019-05-23T03:08:08.133Z,10.33
2019-05-23T03:10:56.863Z,10.03
2019-05-23T03:13:32.374Z,9.97
2019-05-23T03:16:04.421Z,9.97
2019-05-23T03:18:40.133Z,9.43
2019-05-23T03:21:11.466Z,10.27
2019-05-23T03:23:43.363Z,9.77
2019-05-23T03:26:42.377Z,10.10
2019-05-23T03:29:12.688Z,9.37
2019-05-23T03:31:58.690Z,9.67
2019-05-23T03:34:31.310Z,9.53
2019-05-23T03:37:01.840Z,10.43
2019-05-23T03:39:33.331Z,10.00
2019-05-23T03:42:04.235Z,9.77
2019-05-23T03:44:34.625Z,9.90
2019-05-23T03:47:07.386Z,11.00
2019-05-23T03:49:39.385Z,10.50
2019-05-23T03:52:11.301Z,10.80
2019-05-23T03:54:43.634Z,10.03
2019-05-23T03:57:15.045Z,9.87
2019-05-23T03:59:46.437Z,11.90
2019-05-23T04:02:19.047Z,11.13
2019-05-23T04:04:49.482Z,9.77
2019-05-23T04:07:20.186Z,11.53
2019-05-23T04:09:50.492Z,10.83
2019-05-23T04:12:21.053Z,11.00
2019-05-23T04:14:52.074Z,10.53
2019-05-23T04:17:22.647Z,11.00
2019-05-23T04:19:53.233Z,10.87
2019-05-23T04:22:23.825Z,11.33
2019-05-23T04:24:54.214Z,10.67
2019-05-23T04:27:25.334Z,11.37
2019-05-23T04:29:55.745Z,11.10
2019-05-23T04:32:26.058Z,11.60
2019-05-23T04:34:56.469Z,11.27
2019-05-23T04:37:27.329Z,11.13
2019-05-23T04:39:57.854Z,11.37
2019-05-23T04:42:28.215Z,11.37
2019-05-23T04:44:58.559Z,11.20
2019-05-23T04:47:29.062Z,10.70
2019-05-23T04:50:00.450Z,11.17
2019-05-23T04:52:30.866Z,10.67
2019-05-23T04:55:01.559Z,11.70
2019-05-23T04:57:32.525Z,10.57
2019-05-23T05:00:03.043Z,11.23
2019-05-23T05:02:33.512Z,10.90
2019-05-23T05:05:04.181Z,11.50
2019-05-23T05:07:34.926Z,10.00
2019-05-23T05:10:05.485Z,9.93
2019-05-23T05:12:36.385Z,10.63
2019-05-23T05:15:08.168Z,10.80
2019-05-23T05:17:38.752Z,9.77
2019-05-23T05:20:09.230Z,11.27
2019-05-23T05:22:39.920Z,10.60
2019-05-23T05:25:10.737Z,10.50
2019-05-23T05:27:41.145Z,10.80
2019-05-23T05:30:11.865Z,10.47
2019-05-23T05:32:45.220Z,10.47
2019-05-23T05:35:14.795Z,10.47
2019-05-23T05:37:46.121Z,10.10
2019-05-23T05:40:17.230Z,10.17
2019-05-23T05:42:47.621Z,9.50
2019-05-23T05:45:20.243Z,9.47
2019-05-23T05:47:50.616Z,10.67
2019-05-23T05:50:21.039Z,9.93
2019-05-23T05:52:51.552Z,10.67
2019-05-23T05:55:21.990Z,10.60
2019-05-23T05:57:52.385Z,11.70
2019-05-23T06:00:40.222Z,9.83
2019-05-23T06:03:10.808Z,10.83
2019-05-23T06:05:54.918Z,10.13
2019-05-23T06:08:25.596Z,9.43
2019-05-23T06:10:55.884Z,9.83
2019-05-23T06:13:26.349Z,10.00
2019-05-23T06:15:56.824Z,9.93
2019-05-23T06:18:27.849Z,9.70
2019-05-23T06:20:59.342Z,9.97
2019-05-23T06:23:29.867Z,10.53
2019-05-23T06:26:00.178Z,8.83
2019-05-23T06:28:31.707Z,9.10
2019-05-23T06:31:02.418Z,9.30
2019-05-23T06:33:32.974Z,9.93
2019-05-23T06:36:03.330Z,9.50
2019-05-23T06:38:34.046Z,8.67
2019-05-23T06:41:05.788Z,8.70
2019-05-23T06:43:37.482Z,9.97
2019-05-23T06:46:08.186Z,9.47
2019-05-23T06:48:38.630Z,11.17
2019-05-23T06:51:09.151Z,11.00
2019-05-23T06:53:39.524Z,10.40
2019-05-23T06:56:12.148Z,9.57
2019-05-23T06:58:43.049Z,9.20
2019-05-23T07:01:13.535Z,10.03
2019-05-23T07:03:44.211Z,10.20
2019-05-23T07:06:18.249Z,9.57
2019-05-23T07:08:48.587Z,10.37
2019-05-23T07:11:22.091Z,9.37
2019-05-23T07:13:52.518Z,9.87
2019-05-23T07:16:23.141Z,9.80
2019-05-23T07:18:53.578Z,9.30
2019-05-23T07:21:24.074Z,9.97
2019-05-23T07:23:55.043Z,9.73
2019-05-23T07:26:25.383Z,9.60
2019-05-23T07:28:56.243Z,10.00
2019-05-23T07:31:26.759Z,10.03
2019-05-23T07:35:44.446Z,10.07
2019-05-23T07:38:15.142Z,9.57
2019-05-23T07:40:46.547Z,9.23
2019-05-23T07:43:17.309Z,9.70
2019-05-23T07:45:52.890Z,9.97
2019-05-23T07:48:23.684Z,9.20
2019-05-23T07:50:54.000Z,9.10
2019-05-23T07:53:34.119Z,9.03
2019-05-23T07:56:07.941Z,9.80
2019-05-23T07:58:39.924Z,9.67
2019-05-23T08:01:13.425Z,10.20
2019-05-23T08:03:45.310Z,10.33
2019-05-23T08:06:15.638Z,10.30
2019-05-23T08:08:46.122Z,10.63
2019-05-23T08:11:16.418Z,11.23
2019-05-23T08:13:47.833Z,12.27
2019-05-23T08:16:18.586Z,12.03
2019-05-23T08:18:49.014Z,12.27
2019-05-23T08:21:22.180Z,12.97
2019-05-23T08:23:52.526Z,12.87
2019-05-23T08:26:24.520Z,10.87
2019-05-23T08:29:23.778Z,10.90
2019-05-23T08:31:27.954Z,11.60
2019-05-23T08:33:59.391Z,12.10
2019-05-23T08:36:30.501Z,11.63
2019-05-23T08:39:01.684Z,12.63
2019-05-23T08:41:32.483Z,11.60
2019-05-23T08:44:03.418Z,13.07
2019-05-23T08:46:34.593Z,12.20
2019-05-23T08:49:06.023Z,12.50
2019-05-23T08:51:36.746Z,12.00
2019-05-23T08:54:07.525Z,12.57
2019-05-23T08:56:38.511Z,12.33
2019-05-23T08:59:10.728Z,13.10
2019-05-23T09:01:41.261Z,13.30
2019-05-23T09:04:11.979Z,12.03
2019-05-23T09:06:42.758Z,14.20
2019-05-23T09:09:28.582Z,14.97
2019-05-23T09:11:46.533Z,12.83
2019-05-23T09:14:17.875Z,14.50
2019-05-23T09:16:47.964Z,12.67
2019-05-23T09:19:18.439Z,12.93
2019-05-23T09:21:49.013Z,13.23
2019-05-23T09:24:19.608Z,13.17
2019-05-23T09:26:50.528Z,12.80
2019-05-23T09:29:20.912Z,11.87
2019-05-23T09:31:51.349Z,11.43
2019-05-23T09:34:21.848Z,11.07
2019-05-23T09:36:52.517Z,11.50
2019-05-23T09:39:24.527Z,11.70
2019-05-23T09:41:54.881Z,11.10
2019-05-23T09:44:25.213Z,9.57
2019-05-23T09:46:55.515Z,8.93
2019-05-23T09:49:26.017Z,9.83
2019-05-23T09:52:00.991Z,8.37
2019-05-23T09:54:28.586Z,8.90
2019-05-23T09:56:59.189Z,9.23
2019-05-23T09:59:29.930Z,9.80
2019-05-23T10:02:02.136Z,8.30
2019-05-23T10:04:32.693Z,9.43
2019-05-23T10:07:54.557Z,7.83
2019-05-23T10:10:25.340Z,8.80
2019-05-23T10:12:55.671Z,7.87
2019-05-23T10:15:38.510Z,8.40
2019-05-23T10:18:11.223Z,7.60
2019-05-23T10:20:42.217Z,7.87
2019-05-23T10:23:12.609Z,8.30
2019-05-23T10:25:42.942Z,8.13
2019-05-23T10:28:13.444Z,7.87
2019-05-23T10:30:43.981Z,7.30
2019-05-23T10:33:14.623Z,7.00
2019-05-23T10:35:58.880Z,6.70
2019-05-23T10:38:17.011Z,7.83
2019-05-23T10:40:47.543Z,7.40
2019-05-23T10:43:17.921Z,7.30
2019-05-23T10:45:48.943Z,6.60
2019-05-23T10:48:21.035Z,6.10
2019-05-23T10:50:52.251Z,5.70
2019-05-23T10:53:22.849Z,7.07
2019-05-23T10:55:53.521Z,7.43
2019-05-23T10:58:24.666Z,6.87
2019-05-23T11:00:55.867Z,5.60
2019-05-23T11:03:26.806Z,5.10
2019-05-23T11:05:57.199Z,5.37
2019-05-23T11:08:30.017Z,4.90
2019-05-23T11:10:59.913Z,4.30
2019-05-23T11:13:30.489Z,4.53
2019-05-23T11:16:01.150Z,4.23
2019-05-23T11:18:31.807Z,3.90
2019-05-23T11:21:03.275Z,5.03
2019-05-23T11:23:41.523Z,4.70
2019-05-23T11:26:17.896Z,5.37
2019-05-23T11:29:00.111Z,5.10
2019-05-23T11:31:32.467Z,4.93
2019-05-23T11:34:07.639Z,4.50
2019-05-23T11:36:45.901Z,4.33
2019-05-23T11:39:25.350Z,4.30
2019-05-23T11:42:00.331Z,4.23
2019-05-23T11:44:32.232Z,4.00
2019-05-23T11:47:07.823Z,3.53
2019-05-23T11:49:42.944Z,4.00
2019-05-23T11:52:15.735Z,4.37
2019-05-23T11:54:48.794Z,4.43
2019-05-23T11:57:21.172Z,4.07
2019-05-23T11:59:53.597Z,3.87
2019-05-23T12:02:35.922Z,4.47
2019-05-23T12:05:19.462Z,4.40
2019-05-23T12:07:51.272Z,3.90
2019-05-23T12:10:23.378Z,4.33
2019-05-23T12:12:55.298Z,3.83
2019-05-23T12:15:29.872Z,3.70
2019-05-23T12:18:01.113Z,3.80
2019-05-23T12:20:33.037Z,4.00
2019-05-23T12:23:10.481Z,4.20
2019-05-23T12:25:38.215Z,4.10
2019-05-23T12:28:11.181Z,4.20
2019-05-23T12:30:42.723Z,4.03
2019-05-23T12:33:14.480Z,4.30
2019-05-23T12:35:45.760Z,5.60
2019-05-23T12:38:17.934Z,3.80
2019-05-23T12:40:48.277Z,4.33
2019-05-23T12:43:18.742Z,4.30
2019-05-23T12:45:49.190Z,4.47
2019-05-23T12:48:29.184Z,4.63
2019-05-23T12:51:00.103Z,4.30
2019-05-23T12:53:30.489Z,3.87
2019-05-23T12:56:03.769Z,3.60
2019-05-23T12:58:37.528Z,4.80
2019-05-23T13:01:12.002Z,4.20
2019-05-23T13:03:45.249Z,3.60
2019-05-23T13:06:16.789Z,4.43
2019-05-23T13:08:49.445Z,4.57
2019-05-23T13:11:22.276Z,4.27
2019-05-23T13:13:53.142Z,4.60
2019-05-23T13:16:23.323Z,3.70
2019-05-23T13:18:53.630Z,3.70
2019-05-23T13:21:23.950Z,4.53
2019-05-23T13:23:54.281Z,4.37
2019-05-23T13:26:24.661Z,4.00
2019-05-23T13:28:55.060Z,4.00
2019-05-23T13:31:25.535Z,4.50
2019-05-23T13:33:55.982Z,4.37
2019-05-23T13:36:26.391Z,4.13
2019-05-23T13:38:57.494Z,3.90
2019-05-23T13:41:27.843Z,4.27
2019-05-23T13:43:58.409Z,4.37
2019-05-23T13:46:28.987Z,4.40
2019-05-23T13:48:59.597Z,4.23
2019-05-23T13:51:30.200Z,3.93
2019-05-23T13:54:00.625Z,4.27
2019-05-23T13:56:31.102Z,4.20
2019-05-23T13:59:01.434Z,4.80
2019-05-23T14:01:33.411Z,4.47
2019-05-23T14:04:03.752Z,4.20
2019-05-23T14:06:34.042Z,4.10
2019-05-23T14:09:05.161Z,4.33
2019-05-23T14:11:35.665Z,4.30
2019-05-23T14:14:06.710Z,4.10
2019-05-23T14:16:49.737Z,3.87
2019-05-23T14:19:20.194Z,4.50
2019-05-23T14:21:50.582Z,4.20
2019-05-23T14:24:20.905Z,4.77
2019-05-23T14:26:58.034Z,4.13
2019-05-23T14:29:28.357Z,4.30
2019-05-23T14:32:14.151Z,4.13
2019-05-23T14:34:44.473Z,4.00
2019-05-23T14:37:26.194Z,3.60
2019-05-23T14:39:59.718Z,4.20
2019-05-23T14:42:37.309Z,3.77
2019-05-23T14:45:21.437Z,4.10
2019-05-23T14:48:00.767Z,3.60
2019-05-23T14:50:43.320Z,3.70
2019-05-23T14:53:14.942Z,3.47
2019-05-23T14:55:45.267Z,3.80
2019-05-23T14:58:15.947Z,3.50
2019-05-23T15:00:48.415Z,4.00
2019-05-23T15:03:19.043Z,3.70
2019-05-23T15:05:50.606Z,3.63
2019-05-23T15:08:21.388Z,3.47
2019-05-23T15:10:51.418Z,3.37
2019-05-23T15:13:21.709Z,3.50
2019-05-23T15:15:52.042Z,3.43
2019-05-23T15:18:22.380Z,3.67
2019-05-23T15:20:52.779Z,3.33
2019-05-23T15:23:23.162Z,3.40
2019-05-23T15:25:53.615Z,3.20
2019-05-23T15:28:24.257Z,3.57
2019-05-23T15:30:54.687Z,3.47
2019-05-23T15:33:24.989Z,3.90
2019-05-23T15:35:55.326Z,3.80
2019-05-23T15:38:25.674Z,3.50
2019-05-23T15:40:56.459Z,3.27
2019-05-23T15:43:26.899Z,3.47
2019-05-23T15:45:57.294Z,3.97
2019-05-23T15:48:27.605Z,3.63
2019-05-23T15:50:57.905Z,3.33
2019-05-23T15:53:59.491Z,3.80
2019-05-23T15:56:50.691Z,3.50
2019-05-23T15:59:28.809Z,3.70
2019-05-23T16:02:06.611Z,3.07
2019-05-23T16:04:37.290Z,3.80
2019-05-23T16:07:09.744Z,3.50
2019-05-23T16:09:40.585Z,3.23
2019-05-23T16:12:13.148Z,3.43
2019-05-23T16:14:43.720Z,3.63
2019-05-23T16:17:14.013Z,3.50
2019-05-23T16:19:44.498Z,3.30
2019-05-23T16:22:14.768Z,3.07
2019-05-23T16:24:45.325Z,3.17
2019-05-23T16:27:15.639Z,3.30
2019-05-23T16:29:46.121Z,2.90
2019-05-23T16:32:16.552Z,4.37
2019-05-23T16:34:47.221Z,3.67
2019-05-23T16:37:17.539Z,2.97
2019-05-23T16:39:49.865Z,3.37
2019-05-23T16:42:20.161Z,3.27
2019-05-23T16:44:50.560Z,3.23
2019-05-23T16:47:21.358Z,3.10
2019-05-23T16:49:54.545Z,3.70
2019-05-23T16:52:26.019Z,3.17
2019-05-23T16:54:57.797Z,3.37
2019-05-23T16:57:35.288Z,3.10
2019-05-23T17:00:26.791Z,3.10
2019-05-23T17:03:34.769Z,3.00
2019-05-23T17:06:30.494Z,3.57
2019-05-23T17:09:23.427Z,3.77
2019-05-23T17:12:12.787Z,3.10
2019-05-23T17:14:56.986Z,3.30
2019-05-23T17:18:02.305Z,3.10
2019-05-23T17:20:40.223Z,3.43
2019-05-23T17:23:29.505Z,3.37
2019-05-23T17:26:09.468Z,3.40
2019-05-23T17:28:44.824Z,3.17
2019-05-23T17:31:18.125Z,3.07
2019-05-23T17:33:49.342Z,3.40
2019-05-23T17:36:19.951Z,3.57
2019-05-23T17:38:50.382Z,3.30
2019-05-23T17:41:20.924Z,3.43
2019-05-23T17:43:51.526Z,3.03
2019-05-23T17:46:21.999Z,3.20
2019-05-23T17:48:52.380Z,3.33
2019-05-23T17:51:22.765Z,3.37
2019-05-23T17:53:53.153Z,2.90
2019-05-23T17:56:23.897Z,3.00
2019-05-23T17:58:54.141Z,2.93
2019-05-23T18:01:25.431Z,3.30
2019-05-23T18:03:55.849Z,3.13
2019-05-23T18:06:26.436Z,2.80
2019-05-23T18:08:56.969Z,2.97
2019-05-23T18:11:27.941Z,2.93
2019-05-23T18:13:58.920Z,3.37
2019-05-23T18:16:29.394Z,4.27
2019-05-23T18:18:59.732Z,4.90
2019-05-23T18:21:30.319Z,5.00
2019-05-23T18:24:00.716Z,4.83
2019-05-23T18:26:31.182Z,6.83
2019-05-23T18:29:01.733Z,6.10
2019-05-23T18:31:34.199Z,5.67
2019-05-23T18:34:05.231Z,6.50
2019-05-23T18:36:35.760Z,6.47
2019-05-23T18:39:09.709Z,6.23
2019-05-23T18:41:40.898Z,6.87
2019-05-23T18:44:11.326Z,6.53
2019-05-23T18:46:45.097Z,7.00
2019-05-23T18:49:15.522Z,7.63
2019-05-23T18:51:45.948Z,7.07
2019-05-23T18:54:16.535Z,7.83
2019-05-23T18:56:46.955Z,7.30
2019-05-23T18:59:18.090Z,8.40
2019-05-23T19:01:48.508Z,7.80
2019-05-23T19:04:18.810Z,7.83
2019-05-23T19:06:50.664Z,8.07
2019-05-23T19:09:21.797Z,8.03
2019-05-23T19:11:52.293Z,7.87
2019-05-23T19:14:23.332Z,8.03
2019-05-23T19:16:53.901Z,7.77
2019-05-23T19:19:24.506Z,7.80
2019-05-23T19:21:55.039Z,7.53
2019-05-23T19:24:26.233Z,7.67
2019-05-23T19:26:56.565Z,7.50
2019-05-23T19:29:27.865Z,7.47
2019-05-23T19:31:58.715Z,7.57
2019-05-23T19:34:29.180Z,7.37
2019-05-23T19:36:59.580Z,7.67
2019-05-23T19:39:29.996Z,8.30
2019-05-23T19:42:00.357Z,8.13
2019-05-23T19:44:30.678Z,8.33
2019-05-23T19:47:01.035Z,7.90
2019-05-23T19:49:31.342Z,7.97
2019-05-23T19:52:01.734Z,7.60
2019-05-23T19:54:32.327Z,7.87
2019-05-23T19:57:05.794Z,7.43
2019-05-23T19:59:36.095Z,7.13
2019-05-23T20:02:17.473Z,7.07
2019-05-23T20:04:55.786Z,7.63
2019-05-23T20:07:26.307Z,8.50
2019-05-23T20:09:57.573Z,7.37
2019-05-23T20:12:28.603Z,7.83
2019-05-23T20:14:58.905Z,7.70
2019-05-23T20:17:29.413Z,7.70
2019-05-23T20:19:59.833Z,7.90
2019-05-23T20:22:30.306Z,7.93
2019-05-23T20:25:00.618Z,8.23
2019-05-23T20:27:31.005Z,8.90
2019-05-23T20:30:01.311Z,9.27
2019-05-23T20:32:31.612Z,9.57
2019-05-23T20:35:03.632Z,9.53
2019-05-23T20:37:35.894Z,8.33
2019-05-23T20:40:09.849Z,9.40
2019-05-23T20:42:40.481Z,9.93
2019-05-23T20:45:10.821Z,9.47
2019-05-23T20:47:41.286Z,9.40
2019-05-23T20:50:11.815Z,9.57
2019-05-23T20:52:42.854Z,9.33
2019-05-23T20:55:16.268Z,9.63
2019-05-23T20:57:47.487Z,10.07
2019-05-23T21:00:26.273Z,10.40
2019-05-23T21:02:56.543Z,9.13
2019-05-23T21:05:29.264Z,9.80
2019-05-23T21:08:02.014Z,9.40
2019-05-23T21:10:47.192Z,9.70
2019-05-23T21:13:18.093Z,8.73
2019-05-23T21:15:49.019Z,9.43
2019-05-23T21:18:19.656Z,8.77
2019-05-23T21:20:50.643Z,8.67
2019-05-23T21:23:21.554Z,8.80
2019-05-23T21:25:56.654Z,9.10
2019-05-23T21:28:29.266Z,8.73
2019-05-23T21:30:59.899Z,8.90
2019-05-23T21:33:30.339Z,10.10
2019-05-23T21:36:00.975Z,9.17
2019-05-23T21:38:31.520Z,8.97
2019-05-23T21:41:03.459Z,8.80
2019-05-23T21:43:38.872Z,9.17
2019-05-23T21:46:09.327Z,9.37
2019-05-23T21:48:42.353Z,9.90
2019-05-23T21:51:13.270Z,10.07
2019-05-23T21:53:43.773Z,10.23
2019-05-23T21:56:14.305Z,11.10
2019-05-23T21:58:44.701Z,10.90
2019-05-23T22:02:00.602Z,10.83
2019-05-23T22:04:56.364Z,11.40
2019-05-23T22:07:27.401Z,10.77
2019-05-23T22:09:57.850Z,11.47
2019-05-23T22:12:29.809Z,11.20
2019-05-23T22:15:01.252Z,10.93
2019-05-23T22:17:32.173Z,10.23
2019-05-23T22:20:02.751Z,11.07
2019-05-23T22:22:35.740Z,12.67
2019-05-23T22:25:07.858Z,11.00
2019-05-23T22:27:41.796Z,10.93
2019-05-23T22:30:14.819Z,11.27
2019-05-23T22:32:49.808Z,11.77
2019-05-23T22:35:20.929Z,11.97
2019-05-23T22:37:51.389Z,12.23
2019-05-23T22:40:22.583Z,11.67
2019-05-23T22:42:53.350Z,11.80
2019-05-23T22:45:26.118Z,11.73
2019-05-23T22:47:56.509Z,11.77
2019-05-23T22:50:26.940Z,12.50
2019-05-23T22:52:57.314Z,13.63
2019-05-23T22:55:28.026Z,13.87
2019-05-23T22:57:58.406Z,12.97
2019-05-23T23:00:33.372Z,13.63
2019-05-23T23:03:03.707Z,15.17
2019-05-23T23:05:34.325Z,14.73
2019-05-23T23:08:04.639Z,14.73
2019-05-23T23:10:35.022Z,13.63
2019-05-23T23:13:05.352Z,14.70
2019-05-23T23:15:35.852Z,15.23
2019-05-23T23:18:06.993Z,14.77
2019-05-23T23:20:37.329Z,13.93
2019-05-23T23:23:07.666Z,14.37
2019-05-23T23:25:38.349Z,14.97
2019-05-23T23:28:08.667Z,14.57
2019-05-23T23:30:41.281Z,14.93
2019-05-23T23:33:12.186Z,14.77
2019-05-23T23:35:42.513Z,15.33
2019-05-23T23:38:12.896Z,15.77
2019-05-23T23:40:43.258Z,14.13
2019-05-23T23:43:13.653Z,14.77
2019-05-23T23:46:02.857Z,14.80
2019-05-23T23:48:51.258Z,14.40
2019-05-23T23:51:39.967Z,13.50
2019-05-23T23:54:28.334Z,14.03
2019-05-23T23:57:16.889Z,13.53
2019-05-23T23:59:46.463Z,13.70
